createdAt,value
2023-01-27T00:00:03.870Z,98378.50
2023-01-27T00:03:21.409Z,98377.75
2023-01-27T00:06:27.719Z,98378.88
2023-01-27T00:09:34.421Z,98373.69
2023-01-27T00:12:56.030Z,98377.34
2023-01-27T00:16:01.434Z,98368.56
2023-01-27T00:19:10.877Z,98371.97
2023-01-27T00:22:32.078Z,98376.44
2023-01-27T00:25:38.333Z,98375.63
2023-01-27T00:28:46.338Z,98349.38
2023-01-27T00:32:08.939Z,98382.53
2023-01-27T00:35:18.332Z,98382.53
2023-01-27T00:38:24.541Z,98393.84
2023-01-27T00:41:31.788Z,98377.44
2023-01-27T00:44:38.004Z,98386.09
2023-01-27T00:47:43.629Z,98382.59
2023-01-27T00:50:52.835Z,98384.56
2023-01-27T00:53:59.453Z,98384.56
2023-01-27T00:57:05.663Z,98382.69
2023-01-27T01:00:14.605Z,98372.25
2023-01-27T01:03:21.059Z,98377.34
2023-01-27T01:06:30.667Z,98373.69
2023-01-27T01:09:37.045Z,98374.38
2023-01-27T01:12:42.601Z,98377.63
2023-01-27T01:15:49.052Z,98380.13
2023-01-27T01:18:54.733Z,98375.97
2023-01-27T01:22:05.046Z,98377.53
2023-01-27T01:25:11.653Z,98375.69
2023-01-27T01:28:17.877Z,98371.56
2023-01-27T01:31:23.983Z,98381.94
2023-01-27T01:34:30.323Z,98374.16
2023-01-27T01:37:39.654Z,98368.91
2023-01-27T01:40:47.905Z,98357.97
2023-01-27T01:43:55.133Z,98377.56
2023-01-27T01:47:02.340Z,98373.44
2023-01-27T01:50:09.482Z,98376.19
2023-01-27T01:53:19.768Z,98365.53
2023-01-27T01:56:33.799Z,98375.91
2023-01-27T01:59:47.290Z,98368.38
2023-01-27T02:02:55.794Z,98372.91
2023-01-27T02:06:03.560Z,98377.56
2023-01-27T02:09:11.755Z,98373.41
2023-01-27T02:12:17.999Z,98371.72
2023-01-27T02:15:24.517Z,98364.81
2023-01-27T02:18:33.678Z,98360.72
2023-01-27T02:21:39.210Z,98367.81
2023-01-27T02:24:58.177Z,98372.09
2023-01-27T02:28:10.829Z,98361.59
2023-01-27T02:31:17.418Z,98361.50
2023-01-27T02:34:33.654Z,98359.72
2023-01-27T02:37:43.803Z,98358.06
2023-01-27T02:40:57.193Z,98360.63
2023-01-27T02:44:07.119Z,98366.63
2023-01-27T02:47:13.439Z,98366.53
2023-01-27T02:50:20.887Z,98364.75
2023-01-27T02:53:26.283Z,98365.59
2023-01-27T02:56:35.658Z,98362.97
2023-01-27T02:59:44.560Z,98357.78
2023-01-27T03:02:50.803Z,98368.16
2023-01-27T03:05:56.167Z,98367.41
2023-01-27T03:09:02.416Z,98365.81
2023-01-27T03:12:23.278Z,98365.72
2023-01-27T03:15:49.518Z,98369.84
2023-01-27T03:18:56.632Z,98368.06
2023-01-27T03:22:03.387Z,98375.75
2023-01-27T03:25:13.104Z,98374.84
2023-01-27T03:28:20.171Z,98374.69
2023-01-27T03:31:41.118Z,98373.75
2023-01-27T03:34:47.652Z,98382.41
2023-01-27T03:38:19.730Z,98381.59
2023-01-27T03:41:41.725Z,98371.16
2023-01-27T03:45:03.309Z,98370.03
2023-01-27T03:48:12.951Z,98376.78
2023-01-27T03:51:19.169Z,98370.66
2023-01-27T03:54:25.637Z,98379.22
2023-01-27T03:57:31.031Z,98367.94
2023-01-27T04:00:37.263Z,98368.72
2023-01-27T04:04:02.272Z,98375.38
2023-01-27T04:07:08.973Z,98369.19
2023-01-27T04:10:15.106Z,98380.22
2023-01-27T04:13:18.507Z,98380.28
2023-01-27T04:16:29.089Z,98371.63
2023-01-27T04:19:38.077Z,98356.97
2023-01-27T04:22:43.596Z,98368.69
2023-01-27T04:25:50.700Z,98370.38
2023-01-27T04:28:56.091Z,98367.91
2023-01-27T04:32:03.698Z,98369.84
2023-01-27T04:35:12.612Z,98370.13
2023-01-27T04:38:19.240Z,98365.97
2023-01-27T04:41:24.912Z,98376.53
2023-01-27T04:44:31.199Z,98381.84
2023-01-27T04:47:36.660Z,98370.81
2023-01-27T04:50:46.091Z,98358.28
2023-01-27T04:53:51.492Z,98370.53
2023-01-27T04:57:03.704Z,98369.00
2023-01-27T05:00:10.968Z,98375.19
2023-01-27T05:03:17.214Z,98370.09
2023-01-27T05:06:26.517Z,98374.53
2023-01-27T05:09:33.056Z,98382.44
2023-01-27T05:12:38.659Z,98378.56
2023-01-27T05:15:44.907Z,98381.44
2023-01-27T05:18:52.859Z,98382.50
2023-01-27T05:22:01.862Z,98382.69
2023-01-27T05:25:08.240Z,98383.59
2023-01-27T05:28:14.925Z,98387.16
2023-01-27T05:31:23.978Z,98388.09
2023-01-27T05:34:30.371Z,98388.78
2023-01-27T05:37:38.541Z,98394.75
2023-01-27T05:40:44.820Z,98397.22
2023-01-27T05:43:56.083Z,98396.41
2023-01-27T05:47:02.347Z,98402.59
2023-01-27T05:50:09.203Z,98401.66
2023-01-27T05:53:18.800Z,98407.72
2023-01-27T05:56:27.094Z,98404.44
2023-01-27T05:59:33.316Z,98413.13
2023-01-27T06:02:38.976Z,98416.47
2023-01-27T06:05:59.667Z,98414.91
2023-01-27T06:09:09.263Z,98416.13
2023-01-27T06:12:15.592Z,98413.72
2023-01-27T06:15:21.024Z,98415.56
2023-01-27T06:18:36.531Z,98425.91
2023-01-27T06:21:42.436Z,98422.44
2023-01-27T06:24:51.462Z,98425.84
2023-01-27T06:27:57.979Z,98423.78
2023-01-27T06:31:12.352Z,98432.28
2023-01-27T06:34:17.786Z,98429.63
2023-01-27T06:37:24.009Z,98434.69
2023-01-27T06:40:35.745Z,98440.84
2023-01-27T06:43:42.230Z,98447.72
2023-01-27T06:46:47.654Z,98452.84
2023-01-27T06:49:54.100Z,98445.91
2023-01-27T06:53:05.460Z,98448.44
2023-01-27T06:56:16.461Z,98450.38
2023-01-27T06:59:22.843Z,98455.69
2023-01-27T07:02:29.368Z,98448.91
2023-01-27T07:05:36.473Z,98455.91
2023-01-27T07:08:42.800Z,98457.69
2023-01-27T07:11:52.047Z,98459.47
2023-01-27T07:14:58.362Z,98469.69
2023-01-27T07:18:05.541Z,98467.00
2023-01-27T07:21:12.852Z,98467.31
2023-01-27T07:24:19.310Z,98468.09
2023-01-27T07:27:29.669Z,98454.34
2023-01-27T07:30:37.713Z,98450.75
2023-01-27T07:33:44.054Z,98454.78
2023-01-27T07:36:49.626Z,98457.16
2023-01-27T07:39:56.428Z,98454.22
2023-01-27T07:43:06.048Z,98446.47
2023-01-27T07:46:14.097Z,98455.84
2023-01-27T07:49:19.571Z,98459.88
2023-01-27T07:52:25.782Z,98456.44
2023-01-27T07:55:31.983Z,98461.72
2023-01-27T07:58:41.909Z,98454.91
2023-01-27T08:01:48.354Z,98449.75
2023-01-27T08:04:55.228Z,98460.28
2023-01-27T08:08:04.111Z,98467.41
2023-01-27T08:11:15.144Z,98433.25
2023-01-27T08:14:23.397Z,98459.41
2023-01-27T08:17:29.672Z,98462.63
2023-01-27T08:20:35.456Z,98462.97
2023-01-27T08:23:41.763Z,98459.63
2023-01-27T08:26:47.586Z,98460.59
2023-01-27T08:29:56.897Z,98471.81
2023-01-27T08:33:02.486Z,98474.66
2023-01-27T08:36:13.184Z,98467.66
2023-01-27T08:39:18.603Z,98474.41
2023-01-27T08:42:25.086Z,98465.66
2023-01-27T08:45:33.383Z,98468.84
2023-01-27T08:48:40.814Z,98466.03
2023-01-27T08:51:47.221Z,98475.41
2023-01-27T08:54:53.495Z,98476.50
2023-01-27T08:57:59.357Z,98479.88
2023-01-27T09:01:10.975Z,98477.25
2023-01-27T09:04:16.435Z,98487.47
2023-01-27T09:07:23.090Z,98488.28
2023-01-27T09:10:28.510Z,98497.59
2023-01-27T09:13:34.740Z,98491.25
2023-01-27T09:16:43.394Z,98491.28
2023-01-27T09:19:50.393Z,98497.25
2023-01-27T09:22:58.733Z,98501.69
2023-01-27T09:26:04.957Z,98506.88
2023-01-27T09:29:10.315Z,98511.09
2023-01-27T09:32:19.559Z,98504.16
2023-01-27T09:35:25.012Z,98511.03
2023-01-27T09:38:41.031Z,98475.34
2023-01-27T09:42:22.445Z,98509.25
2023-01-27T09:46:01.946Z,98505.63
2023-01-27T09:49:37.433Z,98505.50
2023-01-27T09:53:58.565Z,98506.13
2023-01-27T09:57:21.241Z,98512.81
2023-01-27T10:00:53.324Z,98503.16
2023-01-27T10:04:29.216Z,98504.78
2023-01-27T10:08:02.580Z,98507.44
2023-01-27T10:11:24.455Z,98500.53
2023-01-27T10:14:48.463Z,98508.19
2023-01-27T10:18:37.686Z,98495.97
2023-01-27T10:22:09.454Z,98501.00
2023-01-27T10:25:37.064Z,98490.72
2023-01-27T10:28:54.135Z,98503.38
2023-01-27T10:32:29.948Z,98497.00
2023-01-27T10:35:53.499Z,98494.03
2023-01-27T10:39:24.923Z,98491.34
2023-01-27T10:42:45.024Z,98496.25
2023-01-27T10:46:02.974Z,98496.34
2023-01-27T10:49:23.496Z,98406.19
2023-01-27T10:52:39.275Z,98494.59
2023-01-27T10:56:04.259Z,98457.41
2023-01-27T10:59:25.493Z,98500.06
2023-01-27T11:02:43.911Z,98493.34
2023-01-27T11:05:56.392Z,98500.41
2023-01-27T11:09:17.288Z,98496.00
2023-01-27T11:12:35.295Z,98500.47
2023-01-27T11:15:41.944Z,98499.38
2023-01-27T11:18:52.347Z,98494.72
2023-01-27T11:22:07.845Z,98500.59
2023-01-27T11:25:30.699Z,98497.78
2023-01-27T11:28:54.650Z,98489.22
2023-01-27T11:32:11.595Z,98494.25
2023-01-27T11:35:19.846Z,98353.16
2023-01-27T11:38:27.408Z,98482.16
2023-01-27T11:41:40.401Z,98483.59
2023-01-27T11:44:49.371Z,98486.59
2023-01-27T11:48:03.505Z,98489.25
2023-01-27T11:51:15.387Z,98490.28
2023-01-27T11:54:28.844Z,98497.13
2023-01-27T11:57:34.291Z,98490.13
2023-01-27T12:00:50.589Z,98497.63
2023-01-27T12:04:07.992Z,98501.03
2023-01-27T12:07:24.970Z,98496.03
2023-01-27T12:10:35.307Z,98494.47
2023-01-27T12:13:53.355Z,98480.97
2023-01-27T12:17:07.165Z,98487.91
2023-01-27T12:20:40.128Z,98484.44
2023-01-27T12:23:57.096Z,98480.97
2023-01-27T12:27:07.545Z,98491.56
2023-01-27T12:30:26.998Z,98496.72
2023-01-27T12:33:40.815Z,98498.56
2023-01-27T12:36:48.422Z,98464.66
2023-01-27T12:40:03.394Z,98500.53
2023-01-27T12:43:19.054Z,98495.69
2023-01-27T12:46:29.238Z,98513.09
2023-01-27T12:49:44.814Z,98494.88
2023-01-27T12:53:06.253Z,98489.59
2023-01-27T12:56:18.160Z,98492.28
2023-01-27T12:59:28.447Z,98494.28
2023-01-27T13:02:37.295Z,98494.22
2023-01-27T13:05:47.189Z,98490.09
2023-01-27T13:08:56.492Z,98488.00
2023-01-27T13:12:19.507Z,98489.47
2023-01-27T13:15:29.628Z,98489.53
2023-01-27T13:18:41.146Z,98465.78
2023-01-27T13:21:56.173Z,98494.78
2023-01-27T13:25:06.656Z,98494.78
2023-01-27T13:28:24.756Z,98489.63
2023-01-27T13:31:49.106Z,98496.28
2023-01-27T13:35:07.973Z,98489.03
2023-01-27T13:38:29.470Z,98497.69
2023-01-27T13:41:48.886Z,98502.34
2023-01-27T13:45:06.006Z,98503.22
2023-01-27T13:48:24.052Z,98509.31
2023-01-27T13:51:34.095Z,98497.53
2023-01-27T13:54:42.974Z,98503.84
2023-01-27T13:58:06.642Z,98499.59
2023-01-27T14:01:28.197Z,98505.00
2023-01-27T14:05:02.548Z,98501.69
2023-01-27T14:08:38.942Z,98506.75
2023-01-27T14:12:02.541Z,98511.88
2023-01-27T14:15:30.100Z,98507.56
2023-01-27T14:18:45.328Z,98510.63
2023-01-27T14:22:04.296Z,98513.16
2023-01-27T14:25:29.285Z,98514.03
2023-01-27T14:28:58.783Z,98517.41
2023-01-27T14:32:26.436Z,98523.69
2023-01-27T14:35:48.806Z,98526.16
2023-01-27T14:39:10.248Z,98521.84
2023-01-27T14:42:30.990Z,98534.81
2023-01-27T14:45:43.908Z,98545.22
2023-01-27T14:49:11.666Z,98537.44
2023-01-27T14:52:42.078Z,98548.56
2023-01-27T14:56:03.050Z,98542.09
2023-01-27T14:59:29.825Z,98554.13
2023-01-27T15:03:03.673Z,98548.91
2023-01-27T15:06:26.158Z,98565.94
2023-01-27T15:10:05.155Z,98560.56
2023-01-27T15:13:56.520Z,98565.88
2023-01-27T15:17:33.630Z,98570.13
2023-01-27T15:21:14.520Z,98570.19
2023-01-27T15:24:51.091Z,98563.34
2023-01-27T15:27:59.929Z,98572.81
2023-01-27T15:31:25.064Z,98574.50
2023-01-27T15:34:31.365Z,98569.16
2023-01-27T15:38:01.169Z,98579.63
2023-01-27T15:41:17.919Z,98575.31
2023-01-27T15:44:33.419Z,98584.56
2023-01-27T15:47:40.737Z,98576.00
2023-01-27T15:50:53.060Z,98588.16
2023-01-27T15:54:04.327Z,98584.06
2023-01-27T15:57:26.871Z,98581.34
2023-01-27T16:00:41.288Z,98581.22
2023-01-27T16:03:53.390Z,98584.69
2023-01-27T16:07:05.707Z,98589.75
2023-01-27T16:10:25.778Z,98587.97
2023-01-27T16:13:33.910Z,98575.13
2023-01-27T16:16:39.296Z,98586.47
2023-01-27T16:19:57.971Z,98580.47
2023-01-27T16:23:27.969Z,98588.09
2023-01-27T16:26:49.464Z,98581.41
2023-01-27T16:30:02.110Z,98577.09
2023-01-27T16:33:19.119Z,98557.69
2023-01-27T16:36:31.392Z,98581.81
2023-01-27T16:39:49.618Z,98590.53
2023-01-27T16:43:09.224Z,98590.53
2023-01-27T16:46:34.804Z,98583.50
2023-01-27T16:49:44.554Z,98591.28
2023-01-27T16:52:51.572Z,98587.84
2023-01-27T16:56:03.523Z,98586.84
2023-01-27T16:59:26.885Z,98593.81
2023-01-27T17:02:34.999Z,98598.28
2023-01-27T17:05:43.380Z,98593.03
2023-01-27T17:08:51.153Z,98599.91
2023-01-27T17:11:58.783Z,98596.31
2023-01-27T17:15:24.220Z,98597.16
2023-01-27T17:18:40.386Z,98610.13
2023-01-27T17:21:59.164Z,98611.84
2023-01-27T17:25:09.649Z,98607.50
2023-01-27T17:28:26.682Z,98607.69
2023-01-27T17:31:41.462Z,98615.44
2023-01-27T17:34:47.274Z,98612.00
2023-01-27T17:37:54.553Z,98614.63
2023-01-27T17:40:59.959Z,98618.84
2023-01-27T17:44:14.896Z,98610.97
2023-01-27T17:47:25.506Z,98613.50
2023-01-27T17:50:40.989Z,98593.81
2023-01-27T17:53:46.600Z,98615.22
2023-01-27T17:57:04.557Z,98627.31
2023-01-27T18:00:13.790Z,98624.78
2023-01-27T18:03:28.572Z,98636.81
2023-01-27T18:06:34.065Z,98633.25
2023-01-27T18:09:49.569Z,98628.94
2023-01-27T18:12:55.938Z,98636.66
2023-01-27T18:16:05.162Z,98623.69
2023-01-27T18:19:25.665Z,98639.25
2023-01-27T18:22:32.238Z,98650.56
2023-01-27T18:25:37.680Z,98648.00
2023-01-27T18:28:46.689Z,98639.41
2023-01-27T18:31:57.647Z,98654.16
2023-01-27T18:35:25.223Z,98652.38
2023-01-27T18:38:36.129Z,98660.09
2023-01-27T18:41:50.287Z,98657.69
2023-01-27T18:44:57.188Z,98660.22
2023-01-27T18:48:04.361Z,98661.13
2023-01-27T18:51:18.801Z,98664.38
2023-01-27T18:54:25.689Z,98667.88
2023-01-27T18:57:32.103Z,98666.22
2023-01-27T19:00:45.965Z,98671.63
2023-01-27T19:03:52.719Z,98664.16
2023-01-27T19:07:02.079Z,98663.22
2023-01-27T19:10:16.500Z,98667.53
2023-01-27T19:13:23.856Z,98676.88
2023-01-27T19:16:33.767Z,98676.09
2023-01-27T19:19:40.180Z,98678.63
2023-01-27T19:22:48.778Z,98675.97
2023-01-27T19:26:00.195Z,98676.75
2023-01-27T19:29:06.300Z,98681.91
2023-01-27T19:32:17.063Z,98686.09
2023-01-27T19:35:22.827Z,98678.22
2023-01-27T19:38:33.672Z,98650.22
2023-01-27T19:41:39.114Z,98687.97
2023-01-27T19:44:45.530Z,98690.56
2023-01-27T19:47:53.113Z,98690.75
2023-01-27T19:50:59.347Z,98690.81
2023-01-27T19:54:10.124Z,98693.34
2023-01-27T19:57:20.478Z,98692.75
2023-01-27T20:00:30.593Z,98664.41
2023-01-27T20:03:37.048Z,98702.94
2023-01-27T20:06:42.643Z,98702.03
2023-01-27T20:09:51.681Z,98714.25
2023-01-27T20:13:00.843Z,98725.50
2023-01-27T20:16:08.102Z,98722.09
2023-01-27T20:19:15.197Z,98717.75
2023-01-27T20:22:21.779Z,98715.97
2023-01-27T20:25:31.697Z,98717.84
2023-01-27T20:28:38.220Z,98715.22
2023-01-27T20:31:44.066Z,98722.16
2023-01-27T20:34:50.403Z,98721.19
2023-01-27T20:37:57.878Z,98718.63
2023-01-27T20:41:14.224Z,98722.88
2023-01-27T20:44:19.904Z,98725.47
2023-01-27T20:47:26.263Z,98725.47
2023-01-27T20:50:32.139Z,98726.19
2023-01-27T20:53:45.542Z,98724.34
2023-01-27T20:57:30.544Z,98721.81
2023-01-27T21:00:44.635Z,98716.50
2023-01-27T21:03:51.538Z,98712.09
2023-01-27T21:06:57.867Z,98716.41
2023-01-27T21:10:03.430Z,98713.00
2023-01-27T21:13:12.604Z,98704.31
2023-01-27T21:16:18.657Z,98699.09
2023-01-27T21:19:24.968Z,98710.25
2023-01-27T21:22:30.362Z,98713.66
2023-01-27T21:25:40.118Z,98705.88
2023-01-27T21:28:48.320Z,98703.34
2023-01-27T21:31:54.639Z,98710.31
2023-01-27T21:34:59.990Z,98714.63
2023-01-27T21:38:06.647Z,98712.09
2023-01-27T21:41:37.181Z,98718.19
2023-01-27T21:45:01.746Z,98716.47
2023-01-27T21:48:08.290Z,98718.16
2023-01-27T21:51:14.576Z,98719.81
2023-01-27T21:54:19.914Z,98708.53
2023-01-27T21:57:26.143Z,98711.06
2023-01-27T22:00:34.358Z,98717.97
2023-01-27T22:03:41.633Z,98691.38
2023-01-27T22:06:47.236Z,98704.22
2023-01-27T22:09:53.882Z,98705.19
2023-01-27T22:13:03.712Z,98711.41
2023-01-27T22:16:17.051Z,98713.06
2023-01-27T22:19:22.919Z,98707.81
2023-01-27T22:22:29.205Z,98701.84
2023-01-27T22:25:34.591Z,98696.66
2023-01-27T22:28:40.807Z,98690.56
2023-01-27T22:31:49.299Z,98703.38
2023-01-27T22:34:55.539Z,98702.44
2023-01-27T22:38:02.205Z,98695.38
2023-01-27T22:41:09.068Z,98705.69
2023-01-27T22:44:16.795Z,98695.38
2023-01-27T22:47:25.876Z,98695.59
2023-01-27T22:50:31.379Z,98693.16
2023-01-27T22:53:37.712Z,98686.25
2023-01-27T22:56:43.383Z,98697.41
2023-01-27T22:59:49.652Z,98684.41
2023-01-27T23:02:57.925Z,98693.81
2023-01-27T23:06:07.954Z,98689.44
2023-01-27T23:09:15.156Z,98686.75
2023-01-27T23:12:21.628Z,98688.53
2023-01-27T23:15:27.025Z,98690.22
2023-01-27T23:18:36.056Z,98680.66
2023-01-27T23:21:42.066Z,98681.47
2023-01-27T23:24:48.338Z,98676.19
2023-01-27T23:27:53.896Z,98669.25
2023-01-27T23:31:00.258Z,98676.06
2023-01-27T23:34:08.955Z,98662.31
2023-01-27T23:37:15.185Z,98662.25
2023-01-27T23:40:21.587Z,98672.63
2023-01-27T23:43:28.487Z,98669.97
2023-01-27T23:46:34.032Z,98669.13
2023-01-27T23:49:43.120Z,98666.53
2023-01-27T23:52:48.729Z,98670.94
2023-01-27T23:56:00.952Z,98663.41
2023-01-27T23:59:06.509Z,98673.69
